sensor_id;sensor_type;location;lat;lon;timestamp;pressure;altitude;pressure_sealevel;temperature
15079;BMP180;6932;51.438;5.470;2022-11-02T00:00:21;101065.00;;;19.90
15079;BMP180;6932;51.438;5.470;2022-11-02T00:02:47;101053.00;;;19.90
15079;BMP180;6932;51.438;5.470;2022-11-02T00:05:14;101064.00;;;19.90
15079;BMP180;6932;51.438;5.470;2022-11-02T00:07:41;101063.00;;;19.90
15079;BMP180;6932;51.438;5.470;2022-11-02T00:10:08;101064.00;;;19.90
15079;BMP180;6932;51.438;5.470;2022-11-02T00:12:34;101049.00;;;19.90
15079;BMP180;6932;51.438;5.470;2022-11-02T00:15:00;101067.00;;;19.90
15079;BMP180;6932;51.438;5.470;2022-11-02T00:17:28;101055.00;;;19.90
15079;BMP180;6932;51.438;5.470;2022-11-02T00:19:54;101075.00;;;20.00
15079;BMP180;6932;51.438;5.470;2022-11-02T00:22:19;101073.00;;;20.00
15079;BMP180;6932;51.438;5.470;2022-11-02T00:24:45;101071.00;;;20.00
15079;BMP180;6932;51.438;5.470;2022-11-02T00:27:11;101073.00;;;20.00
15079;BMP180;6932;51.438;5.470;2022-11-02T00:29:37;101080.00;;;20.00
15079;BMP180;6932;51.438;5.470;2022-11-02T00:32:03;101069.00;;;20.00
15079;BMP180;6932;51.438;5.470;2022-11-02T00:34:29;101069.00;;;20.00
15079;BMP180;6932;51.438;5.470;2022-11-02T00:36:54;101074.00;;;20.00
15079;BMP180;6932;51.438;5.470;2022-11-02T00:39:26;101076.00;;;20.00
15079;BMP180;6932;51.438;5.470;2022-11-02T00:41:52;101064.00;;;20.00
15079;BMP180;6932;51.438;5.470;2022-11-02T00:44:18;101079.00;;;20.10
15079;BMP180;6932;51.438;5.470;2022-11-02T00:46:43;101080.00;;;20.00
15079;BMP180;6932;51.438;5.470;2022-11-02T00:49:09;101080.00;;;20.00
15079;BMP180;6932;51.438;5.470;2022-11-02T00:51:35;101077.00;;;20.10
15079;BMP180;6932;51.438;5.470;2022-11-02T00:54:00;101067.00;;;20.10
15079;BMP180;6932;51.438;5.470;2022-11-02T00:56:39;101076.00;;;20.10
15079;BMP180;6932;51.438;5.470;2022-11-02T00:59:13;101077.00;;;20.10
15079;BMP180;6932;51.438;5.470;2022-11-02T01:01:40;101102.00;;;20.10
15079;BMP180;6932;51.438;5.470;2022-11-02T01:04:18;101077.00;;;20.10
15079;BMP180;6932;51.438;5.470;2022-11-02T01:07:19;101081.00;;;20.00
15079;BMP180;6932;51.438;5.470;2022-11-02T01:09:45;101091.00;;;20.00
15079;BMP180;6932;51.438;5.470;2022-11-02T01:12:13;101092.00;;;20.00
15079;BMP180;6932;51.438;5.470;2022-11-02T01:15:26;101106.00;;;20.00
15079;BMP180;6932;51.438;5.470;2022-11-02T01:17:52;101089.00;;;20.00
15079;BMP180;6932;51.438;5.470;2022-11-02T01:20:20;101122.00;;;19.90
15079;BMP180;6932;51.438;5.470;2022-11-02T01:22:50;101091.00;;;19.90
15079;BMP180;6932;51.438;5.470;2022-11-02T01:25:25;101101.00;;;19.90
15079;BMP180;6932;51.438;5.470;2022-11-02T01:27:51;101092.00;;;19.90
15079;BMP180;6932;51.438;5.470;2022-11-02T01:30:17;101101.00;;;19.90
15079;BMP180;6932;51.438;5.470;2022-11-02T01:32:42;101099.00;;;19.80
15079;BMP180;6932;51.438;5.470;2022-11-02T01:35:08;101104.00;;;19.80
15079;BMP180;6932;51.438;5.470;2022-11-02T01:37:34;101089.00;;;19.80
15079;BMP180;6932;51.438;5.470;2022-11-02T01:40:00;101108.00;;;19.80
15079;BMP180;6932;51.438;5.470;2022-11-02T01:42:27;101107.00;;;19.80
15079;BMP180;6932;51.438;5.470;2022-11-02T01:44:53;101107.00;;;19.70
15079;BMP180;6932;51.438;5.470;2022-11-02T01:47:35;101107.00;;;19.70
15079;BMP180;6932;51.438;5.470;2022-11-02T01:50:20;101104.00;;;19.70
15079;BMP180;6932;51.438;5.470;2022-11-02T01:52:47;101123.00;;;19.60
15079;BMP180;6932;51.438;5.470;2022-11-02T01:55:24;101121.00;;;19.60
15079;BMP180;6932;51.438;5.470;2022-11-02T01:58:08;101119.00;;;19.60
15079;BMP180;6932;51.438;5.470;2022-11-02T02:00:35;101117.00;;;19.60
15079;BMP180;6932;51.438;5.470;2022-11-02T02:03:16;101132.00;;;19.50
15079;BMP180;6932;51.438;5.470;2022-11-02T02:06:02;101140.00;;;19.50
15079;BMP180;6932;51.438;5.470;2022-11-02T02:08:31;101129.00;;;19.50
15079;BMP180;6932;51.438;5.470;2022-11-02T02:10:58;101129.00;;;19.50
15079;BMP180;6932;51.438;5.470;2022-11-02T02:13:26;101120.00;;;19.40
15079;BMP180;6932;51.438;5.470;2022-11-02T02:16:14;101137.00;;;19.40
15079;BMP180;6932;51.438;5.470;2022-11-02T02:18:53;101126.00;;;19.40
15079;BMP180;6932;51.438;5.470;2022-11-02T02:21:52;101116.00;;;19.40
15079;BMP180;6932;51.438;5.470;2022-11-02T02:30:09;101139.00;;;19.30
15079;BMP180;6932;51.438;5.470;2022-11-02T02:32:53;101144.00;;;19.30
15079;BMP180;6932;51.438;5.470;2022-11-02T02:38:33;101139.00;;;19.30
15079;BMP180;6932;51.438;5.470;2022-11-02T02:41:39;101137.00;;;19.20
15079;BMP180;6932;51.438;5.470;2022-11-02T02:44:13;101136.00;;;19.20
15079;BMP180;6932;51.438;5.470;2022-11-02T02:46:51;101143.00;;;19.20
15079;BMP180;6932;51.438;5.470;2022-11-02T02:49:33;101141.00;;;19.20
15079;BMP180;6932;51.438;5.470;2022-11-02T02:52:01;101143.00;;;19.20
15079;BMP180;6932;51.438;5.470;2022-11-02T02:54:41;101128.00;;;19.20
15079;BMP180;6932;51.438;5.470;2022-11-02T02:57:15;101145.00;;;19.20
15079;BMP180;6932;51.438;5.470;2022-11-02T02:59:44;101141.00;;;19.20
15079;BMP180;6932;51.438;5.470;2022-11-02T03:02:31;101150.00;;;19.20
15079;BMP180;6932;51.438;5.470;2022-11-02T03:04:58;101164.00;;;19.10
15079;BMP180;6932;51.438;5.470;2022-11-02T03:07:29;101148.00;;;19.10
15079;BMP180;6932;51.438;5.470;2022-11-02T03:10:21;101154.00;;;19.10
15079;BMP180;6932;51.438;5.470;2022-11-02T03:13:33;101152.00;;;19.10
15079;BMP180;6932;51.438;5.470;2022-11-02T03:16:13;101161.00;;;19.10
15079;BMP180;6932;51.438;5.470;2022-11-02T03:19:34;101159.00;;;19.10
15079;BMP180;6932;51.438;5.470;2022-11-02T03:25:22;101157.00;;;19.00
15079;BMP180;6932;51.438;5.470;2022-11-02T03:30:27;101174.00;;;19.10
15079;BMP180;6932;51.438;5.470;2022-11-02T03:33:18;101175.00;;;19.10
15079;BMP180;6932;51.438;5.470;2022-11-02T03:36:12;101174.00;;;19.10
15079;BMP180;6932;51.438;5.470;2022-11-02T03:39:12;101175.00;;;19.00
15079;BMP180;6932;51.438;5.470;2022-11-02T03:41:43;101181.00;;;19.00
15079;BMP180;6932;51.438;5.470;2022-11-02T03:44:16;101174.00;;;19.10
15079;BMP180;6932;51.438;5.470;2022-11-02T03:46:46;101187.00;;;19.00
15079;BMP180;6932;51.438;5.470;2022-11-02T03:49:17;101172.00;;;19.10
15079;BMP180;6932;51.438;5.470;2022-11-02T03:51:46;101196.00;;;19.10
15079;BMP180;6932;51.438;5.470;2022-11-02T03:57:23;101191.00;;;19.00
15079;BMP180;6932;51.438;5.470;2022-11-02T03:59:50;101204.00;;;19.00
15079;BMP180;6932;51.438;5.470;2022-11-02T04:02:16;101208.00;;;19.10
15079;BMP180;6932;51.438;5.470;2022-11-02T04:04:49;101208.00;;;19.10
15079;BMP180;6932;51.438;5.470;2022-11-02T04:07:22;101206.00;;;19.00
15079;BMP180;6932;51.438;5.470;2022-11-02T04:09:50;101223.00;;;19.00
15079;BMP180;6932;51.438;5.470;2022-11-02T04:12:15;101216.00;;;19.00
15079;BMP180;6932;51.438;5.470;2022-11-02T04:14:59;101230.00;;;19.00
15079;BMP180;6932;51.438;5.470;2022-11-02T04:17:25;101222.00;;;19.00
15079;BMP180;6932;51.438;5.470;2022-11-02T04:20:10;101230.00;;;19.00
15079;BMP180;6932;51.438;5.470;2022-11-02T04:22:36;101240.00;;;19.00
15079;BMP180;6932;51.438;5.470;2022-11-02T04:25:21;101236.00;;;18.90
15079;BMP180;6932;51.438;5.470;2022-11-02T04:27:51;101247.00;;;18.90
15079;BMP180;6932;51.438;5.470;2022-11-02T04:30:22;101253.00;;;18.90
15079;BMP180;6932;51.438;5.470;2022-11-02T04:32:50;101247.00;;;18.90
15079;BMP180;6932;51.438;5.470;2022-11-02T04:35:34;101241.00;;;18.90
15079;BMP180;6932;51.438;5.470;2022-11-02T04:38:01;101235.00;;;18.90
15079;BMP180;6932;51.438;5.470;2022-11-02T04:40:45;101249.00;;;18.80
15079;BMP180;6932;51.438;5.470;2022-11-02T04:43:11;101271.00;;;18.80
15079;BMP180;6932;51.438;5.470;2022-11-02T04:45:37;101249.00;;;18.80
15079;BMP180;6932;51.438;5.470;2022-11-02T04:48:08;101271.00;;;18.80
15079;BMP180;6932;51.438;5.470;2022-11-02T04:50:35;101285.00;;;18.80
15079;BMP180;6932;51.438;5.470;2022-11-02T04:53:04;101284.00;;;18.80
15079;BMP180;6932;51.438;5.470;2022-11-02T04:55:32;101282.00;;;18.80
15079;BMP180;6932;51.438;5.470;2022-11-02T04:57:59;101298.00;;;18.80
15079;BMP180;6932;51.438;5.470;2022-11-02T05:00:25;101300.00;;;18.80
15079;BMP180;6932;51.438;5.470;2022-11-02T05:02:50;101303.00;;;18.70
15079;BMP180;6932;51.438;5.470;2022-11-02T05:05:20;101311.00;;;18.70
15079;BMP180;6932;51.438;5.470;2022-11-02T05:07:45;101306.00;;;18.70
15079;BMP180;6932;51.438;5.470;2022-11-02T05:10:11;101314.00;;;18.70
15079;BMP180;6932;51.438;5.470;2022-11-02T05:12:37;101292.00;;;18.70
15079;BMP180;6932;51.438;5.470;2022-11-02T05:15:04;101316.00;;;18.70
15079;BMP180;6932;51.438;5.470;2022-11-02T05:17:30;101320.00;;;18.70
15079;BMP180;6932;51.438;5.470;2022-11-02T05:19:56;101324.00;;;18.70
15079;BMP180;6932;51.438;5.470;2022-11-02T05:22:22;101326.00;;;18.70
15079;BMP180;6932;51.438;5.470;2022-11-02T05:24:47;101338.00;;;18.70
15079;BMP180;6932;51.438;5.470;2022-11-02T05:27:14;101335.00;;;18.70
15079;BMP180;6932;51.438;5.470;2022-11-02T05:29:40;101331.00;;;18.70
15079;BMP180;6932;51.438;5.470;2022-11-02T05:32:06;101333.00;;;18.70
15079;BMP180;6932;51.438;5.470;2022-11-02T05:34:32;101341.00;;;18.70
15079;BMP180;6932;51.438;5.470;2022-11-02T05:36:57;101348.00;;;18.80
15079;BMP180;6932;51.438;5.470;2022-11-02T05:39:23;101361.00;;;18.80
15079;BMP180;6932;51.438;5.470;2022-11-02T05:41:49;101356.00;;;18.70
15079;BMP180;6932;51.438;5.470;2022-11-02T05:44:15;101349.00;;;18.70
15079;BMP180;6932;51.438;5.470;2022-11-02T05:46:42;101368.00;;;18.70
15079;BMP180;6932;51.438;5.470;2022-11-02T05:49:08;101360.00;;;18.70
15079;BMP180;6932;51.438;5.470;2022-11-02T05:51:34;101368.00;;;18.70
15079;BMP180;6932;51.438;5.470;2022-11-02T05:54:00;101365.00;;;18.60
15079;BMP180;6932;51.438;5.470;2022-11-02T05:56:26;101386.00;;;18.60
15079;BMP180;6932;51.438;5.470;2022-11-02T05:58:54;101389.00;;;18.60
15079;BMP180;6932;51.438;5.470;2022-11-02T06:01:20;101383.00;;;18.60
15079;BMP180;6932;51.438;5.470;2022-11-02T06:03:46;101403.00;;;18.60
15079;BMP180;6932;51.438;5.470;2022-11-02T06:06:11;101401.00;;;18.50
15079;BMP180;6932;51.438;5.470;2022-11-02T06:08:38;101407.00;;;18.50
15079;BMP180;6932;51.438;5.470;2022-11-02T06:11:12;101411.00;;;18.50
15079;BMP180;6932;51.438;5.470;2022-11-02T06:13:39;101411.00;;;18.40
15079;BMP180;6932;51.438;5.470;2022-11-02T06:16:08;101412.00;;;18.40
15079;BMP180;6932;51.438;5.470;2022-11-02T06:18:35;101420.00;;;18.40
15079;BMP180;6932;51.438;5.470;2022-11-02T06:21:01;101420.00;;;18.40
15079;BMP180;6932;51.438;5.470;2022-11-02T06:23:28;101426.00;;;18.30
15079;BMP180;6932;51.438;5.470;2022-11-02T06:25:57;101433.00;;;18.30
15079;BMP180;6932;51.438;5.470;2022-11-02T06:28:24;101440.00;;;18.30
15079;BMP180;6932;51.438;5.470;2022-11-02T06:30:51;101447.00;;;18.20
15079;BMP180;6932;51.438;5.470;2022-11-02T06:33:19;101449.00;;;18.30
15079;BMP180;6932;51.438;5.470;2022-11-02T06:35:52;101448.00;;;18.20
15079;BMP180;6932;51.438;5.470;2022-11-02T06:38:21;101463.00;;;18.20
15079;BMP180;6932;51.438;5.470;2022-11-02T06:40:59;101460.00;;;18.20
15079;BMP180;6932;51.438;5.470;2022-11-02T06:43:27;101470.00;;;18.20
15079;BMP180;6932;51.438;5.470;2022-11-02T06:45:57;101477.00;;;18.20
15079;BMP180;6932;51.438;5.470;2022-11-02T06:48:26;101481.00;;;18.10
15079;BMP180;6932;51.438;5.470;2022-11-02T06:50:52;101409.00;;;18.20
15079;BMP180;6932;51.438;5.470;2022-11-02T06:53:17;101416.00;;;18.00
15079;BMP180;6932;51.438;5.470;2022-11-02T06:55:43;101417.00;;;17.80
15079;BMP180;6932;51.438;5.470;2022-11-02T06:58:09;101435.00;;;17.50
15079;BMP180;6932;51.438;5.470;2022-11-02T07:00:35;101446.00;;;17.40
15079;BMP180;6932;51.438;5.470;2022-11-02T07:03:05;101458.00;;;17.20
15079;BMP180;6932;51.438;5.470;2022-11-02T07:05:32;101453.00;;;17.20
15079;BMP180;6932;51.438;5.470;2022-11-02T07:07:58;101449.00;;;17.10
15079;BMP180;6932;51.438;5.470;2022-11-02T07:10:25;101465.00;;;17.10
15079;BMP180;6932;51.438;5.470;2022-11-02T07:12:56;101551.00;;;17.10
15079;BMP180;6932;51.438;5.470;2022-11-02T07:15:24;101571.00;;;17.20
15079;BMP180;6932;51.438;5.470;2022-11-02T07:17:51;101567.00;;;17.40
15079;BMP180;6932;51.438;5.470;2022-11-02T07:20:17;101575.00;;;17.60
15079;BMP180;6932;51.438;5.470;2022-11-02T07:22:58;101582.00;;;17.80
15079;BMP180;6932;51.438;5.470;2022-11-02T07:25:28;101584.00;;;18.00
15079;BMP180;6932;51.438;5.470;2022-11-02T07:27:56;101586.00;;;18.20
15079;BMP180;6932;51.438;5.470;2022-11-02T07:30:25;101586.00;;;18.40
15079;BMP180;6932;51.438;5.470;2022-11-02T07:32:51;101580.00;;;18.50
15079;BMP180;6932;51.438;5.470;2022-11-02T07:35:17;101585.00;;;18.70
15079;BMP180;6932;51.438;5.470;2022-11-02T07:37:55;101590.00;;;18.80
15079;BMP180;6932;51.438;5.470;2022-11-02T07:40:21;101591.00;;;18.90
15079;BMP180;6932;51.438;5.470;2022-11-02T07:42:47;101589.00;;;19.00
15079;BMP180;6932;51.438;5.470;2022-11-02T07:45:13;101579.00;;;19.20
15079;BMP180;6932;51.438;5.470;2022-11-02T07:47:46;101597.00;;;19.30
15079;BMP180;6932;51.438;5.470;2022-11-02T07:50:15;101600.00;;;19.40
15079;BMP180;6932;51.438;5.470;2022-11-02T07:52:53;101613.00;;;19.50
15079;BMP180;6932;51.438;5.470;2022-11-02T07:55:26;101620.00;;;19.60
15079;BMP180;6932;51.438;5.470;2022-11-02T07:58:05;101618.00;;;19.60
15079;BMP180;6932;51.438;5.470;2022-11-02T08:00:36;101615.00;;;19.70
15079;BMP180;6932;51.438;5.470;2022-11-02T08:03:05;101631.00;;;19.70
15079;BMP180;6932;51.438;5.470;2022-11-02T08:05:35;101619.00;;;19.80
15079;BMP180;6932;51.438;5.470;2022-11-02T08:08:09;101622.00;;;19.90
15079;BMP180;6932;51.438;5.470;2022-11-02T08:10:35;101627.00;;;20.00
15079;BMP180;6932;51.438;5.470;2022-11-02T08:13:03;101633.00;;;20.10
15079;BMP180;6932;51.438;5.470;2022-11-02T08:15:29;101627.00;;;20.20
15079;BMP180;6932;51.438;5.470;2022-11-02T08:18:07;101625.00;;;20.30
15079;BMP180;6932;51.438;5.470;2022-11-02T08:20:35;101636.00;;;20.30
15079;BMP180;6932;51.438;5.470;2022-11-02T08:23:04;101635.00;;;20.50
15079;BMP180;6932;51.438;5.470;2022-11-02T08:25:31;101644.00;;;20.50
15079;BMP180;6932;51.438;5.470;2022-11-02T08:27:58;101645.00;;;20.60
15079;BMP180;6932;51.438;5.470;2022-11-02T08:30:31;101648.00;;;20.70
15079;BMP180;6932;51.438;5.470;2022-11-02T08:33:09;101651.00;;;20.80
15079;BMP180;6932;51.438;5.470;2022-11-02T08:35:41;101645.00;;;20.90
15079;BMP180;6932;51.438;5.470;2022-11-02T08:38:16;101654.00;;;21.00
15079;BMP180;6932;51.438;5.470;2022-11-02T08:40:43;101653.00;;;21.10
15079;BMP180;6932;51.438;5.470;2022-11-02T08:43:13;101653.00;;;21.20
15079;BMP180;6932;51.438;5.470;2022-11-02T08:45:43;101653.00;;;21.30
15079;BMP180;6932;51.438;5.470;2022-11-02T08:48:09;101662.00;;;21.40
15079;BMP180;6932;51.438;5.470;2022-11-02T08:50:35;101660.00;;;21.40
15079;BMP180;6932;51.438;5.470;2022-11-02T08:53:01;101651.00;;;21.50
15079;BMP180;6932;51.438;5.470;2022-11-02T08:55:27;101661.00;;;21.60
15079;BMP180;6932;51.438;5.470;2022-11-02T08:57:55;101668.00;;;21.60
15079;BMP180;6932;51.438;5.470;2022-11-02T09:00:28;101675.00;;;21.70
15079;BMP180;6932;51.438;5.470;2022-11-02T09:03:10;101666.00;;;21.80
15079;BMP180;6932;51.438;5.470;2022-11-02T09:08:20;101672.00;;;21.90
15079;BMP180;6932;51.438;5.470;2022-11-02T09:10:52;101666.00;;;21.90
15079;BMP180;6932;51.438;5.470;2022-11-02T09:13:20;101684.00;;;21.90
15079;BMP180;6932;51.438;5.470;2022-11-02T09:15:52;101658.00;;;22.00
15079;BMP180;6932;51.438;5.470;2022-11-02T09:18:21;101678.00;;;22.10
15079;BMP180;6932;51.438;5.470;2022-11-02T09:20:48;101690.00;;;22.10
15079;BMP180;6932;51.438;5.470;2022-11-02T09:23:19;101677.00;;;22.10
15079;BMP180;6932;51.438;5.470;2022-11-02T09:25:46;101679.00;;;22.10
15079;BMP180;6932;51.438;5.470;2022-11-02T09:28:12;101687.00;;;22.10
15079;BMP180;6932;51.438;5.470;2022-11-02T09:30:40;101690.00;;;22.10
15079;BMP180;6932;51.438;5.470;2022-11-02T09:33:06;101685.00;;;22.10
15079;BMP180;6932;51.438;5.470;2022-11-02T09:35:42;101697.00;;;22.10
15079;BMP180;6932;51.438;5.470;2022-11-02T09:38:08;101706.00;;;22.10
15079;BMP180;6932;51.438;5.470;2022-11-02T09:40:58;101693.00;;;22.10
15079;BMP180;6932;51.438;5.470;2022-11-02T09:43:56;101693.00;;;22.20
15079;BMP180;6932;51.438;5.470;2022-11-02T09:49:02;101705.00;;;22.20
15079;BMP180;6932;51.438;5.470;2022-11-02T09:51:44;101704.00;;;22.20
15079;BMP180;6932;51.438;5.470;2022-11-02T09:54:41;101697.00;;;22.20
15079;BMP180;6932;51.438;5.470;2022-11-02T09:57:14;101707.00;;;22.20
15079;BMP180;6932;51.438;5.470;2022-11-02T09:59:41;101712.00;;;22.20
15079;BMP180;6932;51.438;5.470;2022-11-02T10:05:33;101704.00;;;22.20
15079;BMP180;6932;51.438;5.470;2022-11-02T10:08:30;101709.00;;;22.20
15079;BMP180;6932;51.438;5.470;2022-11-02T10:11:31;101619.00;;;22.30
15079;BMP180;6932;51.438;5.470;2022-11-02T10:17:19;101643.00;;;21.90
15079;BMP180;6932;51.438;5.470;2022-11-02T10:20:04;101662.00;;;21.70
15079;BMP180;6932;51.438;5.470;2022-11-02T10:22:39;101731.00;;;21.60
15079;BMP180;6932;51.438;5.470;2022-11-02T10:25:11;101739.00;;;21.60
15079;BMP180;6932;51.438;5.470;2022-11-02T10:27:40;101740.00;;;21.70
15079;BMP180;6932;51.438;5.470;2022-11-02T10:30:18;101740.00;;;21.80
15079;BMP180;6932;51.438;5.470;2022-11-02T10:32:51;101754.00;;;21.90
15079;BMP180;6932;51.438;5.470;2022-11-02T10:36:25;101740.00;;;22.10
15079;BMP180;6932;51.438;5.470;2022-11-02T10:51:13;101740.00;;;22.60
15079;BMP180;6932;51.438;5.470;2022-11-02T10:53:46;101738.00;;;22.60
15079;BMP180;6932;51.438;5.470;2022-11-02T11:01:19;101757.00;;;22.60
15079;BMP180;6932;51.438;5.470;2022-11-02T11:04:00;101763.00;;;22.70
15079;BMP180;6932;51.438;5.470;2022-11-02T11:06:39;101756.00;;;22.70
15079;BMP180;6932;51.438;5.470;2022-11-02T11:09:28;101750.00;;;22.70
15079;BMP180;6932;51.438;5.470;2022-11-02T11:17:20;101755.00;;;22.80
15079;BMP180;6932;51.438;5.470;2022-11-02T11:19:50;101755.00;;;22.80
15079;BMP180;6932;51.438;5.470;2022-11-02T11:22:39;101753.00;;;22.80
15079;BMP180;6932;51.438;5.470;2022-11-02T11:27:54;101757.00;;;22.70
15079;BMP180;6932;51.438;5.470;2022-11-02T11:30:32;101752.00;;;22.70
15079;BMP180;6932;51.438;5.470;2022-11-02T11:33:00;101750.00;;;22.70
15079;BMP180;6932;51.438;5.470;2022-11-02T11:35:36;101750.00;;;22.70
15079;BMP180;6932;51.438;5.470;2022-11-02T11:38:08;101748.00;;;22.70
15079;BMP180;6932;51.438;5.470;2022-11-02T11:40:44;101737.00;;;22.70
15079;BMP180;6932;51.438;5.470;2022-11-02T11:43:14;101737.00;;;22.70
15079;BMP180;6932;51.438;5.470;2022-11-02T11:46:03;101734.00;;;22.60
15079;BMP180;6932;51.438;5.470;2022-11-02T11:48:52;101725.00;;;22.60
15079;BMP180;6932;51.438;5.470;2022-11-02T11:51:58;101733.00;;;22.50
15079;BMP180;6932;51.438;5.470;2022-11-02T11:54:31;101734.00;;;22.60
15079;BMP180;6932;51.438;5.470;2022-11-02T11:57:24;101745.00;;;22.60
15079;BMP180;6932;51.438;5.470;2022-11-02T11:59:53;101734.00;;;22.60
15079;BMP180;6932;51.438;5.470;2022-11-02T12:02:29;101758.00;;;22.60
15079;BMP180;6932;51.438;5.470;2022-11-02T12:05:01;101752.00;;;22.60
15079;BMP180;6932;51.438;5.470;2022-11-02T12:30:23;101706.00;;;22.10
15079;BMP180;6932;51.438;5.470;2022-11-02T12:33:05;101705.00;;;22.10
15079;BMP180;6932;51.438;5.470;2022-11-02T12:36:06;101702.00;;;22.10
15079;BMP180;6932;51.438;5.470;2022-11-02T12:44:50;101695.00;;;22.00
15079;BMP180;6932;51.438;5.470;2022-11-02T12:47:59;101692.00;;;22.00
15079;BMP180;6932;51.438;5.470;2022-11-02T12:50:54;101699.00;;;21.90
15079;BMP180;6932;51.438;5.470;2022-11-02T12:56:20;101698.00;;;21.80
15079;BMP180;6932;51.438;5.470;2022-11-02T12:58:47;101702.00;;;21.80
15079;BMP180;6932;51.438;5.470;2022-11-02T13:01:34;101690.00;;;21.80
15079;BMP180;6932;51.438;5.470;2022-11-02T13:04:15;101695.00;;;21.80
15079;BMP180;6932;51.438;5.470;2022-11-02T13:06:50;101684.00;;;21.70
15079;BMP180;6932;51.438;5.470;2022-11-02T13:10:11;101684.00;;;21.70
15079;BMP180;6932;51.438;5.470;2022-11-02T13:12:44;101684.00;;;21.60
15079;BMP180;6932;51.438;5.470;2022-11-02T13:15:17;101683.00;;;21.60
15079;BMP180;6932;51.438;5.470;2022-11-02T13:20:26;101671.00;;;21.60
15079;BMP180;6932;51.438;5.470;2022-11-02T13:26:02;101677.00;;;21.60
15079;BMP180;6932;51.438;5.470;2022-11-02T13:31:19;101666.00;;;21.60
15079;BMP180;6932;51.438;5.470;2022-11-02T13:33:53;101668.00;;;21.60
15079;BMP180;6932;51.438;5.470;2022-11-02T13:36:20;101654.00;;;21.50
15079;BMP180;6932;51.438;5.470;2022-11-02T13:38:52;101656.00;;;21.60
15079;BMP180;6932;51.438;5.470;2022-11-02T13:50:22;101658.00;;;21.50
15079;BMP180;6932;51.438;5.470;2022-11-02T13:52:58;101656.00;;;21.50
15079;BMP180;6932;51.438;5.470;2022-11-02T13:55:40;101648.00;;;21.50
15079;BMP180;6932;51.438;5.470;2022-11-02T13:58:24;101653.00;;;21.50
15079;BMP180;6932;51.438;5.470;2022-11-02T14:00:57;101644.00;;;21.40
15079;BMP180;6932;51.438;5.470;2022-11-02T14:06:16;101641.00;;;21.40
15079;BMP180;6932;51.438;5.470;2022-11-02T14:08:56;101639.00;;;21.40
15079;BMP180;6932;51.438;5.470;2022-11-02T14:11:32;101627.00;;;21.40
15079;BMP180;6932;51.438;5.470;2022-11-02T14:16:55;101642.00;;;21.40
15079;BMP180;6932;51.438;5.470;2022-11-02T14:19:48;101637.00;;;21.30
15079;BMP180;6932;51.438;5.470;2022-11-02T14:22:16;101633.00;;;21.30
15079;BMP180;6932;51.438;5.470;2022-11-02T14:24:51;101636.00;;;21.30
15079;BMP180;6932;51.438;5.470;2022-11-02T14:32:21;101626.00;;;21.20
15079;BMP180;6932;51.438;5.470;2022-11-02T14:49:33;101615.00;;;21.00
15079;BMP180;6932;51.438;5.470;2022-11-02T14:52:06;101613.00;;;20.90
15079;BMP180;6932;51.438;5.470;2022-11-02T14:54:45;101620.00;;;20.90
15079;BMP180;6932;51.438;5.470;2022-11-02T14:59:58;101603.00;;;20.90
15079;BMP180;6932;51.438;5.470;2022-11-02T15:02:37;101598.00;;;20.80
15079;BMP180;6932;51.438;5.470;2022-11-02T15:05:06;101601.00;;;20.80
15079;BMP180;6932;51.438;5.470;2022-11-02T15:08:47;101599.00;;;20.80
15079;BMP180;6932;51.438;5.470;2022-11-02T15:10:42;101598.00;;;20.70
15079;BMP180;6932;51.438;5.470;2022-11-02T15:18:37;101573.00;;;20.60
15079;BMP180;6932;51.438;5.470;2022-11-02T15:24:01;101579.00;;;20.60
15079;BMP180;6932;51.438;5.470;2022-11-02T15:29:04;101573.00;;;20.50
15079;BMP180;6932;51.438;5.470;2022-11-02T15:31:33;101567.00;;;20.50
15079;BMP180;6932;51.438;5.470;2022-11-02T15:34:13;101557.00;;;20.50
15079;BMP180;6932;51.438;5.470;2022-11-02T15:36:43;101555.00;;;20.40
15079;BMP180;6932;51.438;5.470;2022-11-02T15:39:11;101564.00;;;20.40
15079;BMP180;6932;51.438;5.470;2022-11-02T15:47:38;101561.00;;;20.20
15079;BMP180;6932;51.438;5.470;2022-11-02T16:02:21;101559.00;;;20.00
15079;BMP180;6932;51.438;5.470;2022-11-02T16:04:55;101557.00;;;20.00
15079;BMP180;6932;51.438;5.470;2022-11-02T16:07:22;101556.00;;;20.00
15079;BMP180;6932;51.438;5.470;2022-11-02T16:09:48;101554.00;;;20.00
15079;BMP180;6932;51.438;5.470;2022-11-02T16:12:19;101557.00;;;20.00
15079;BMP180;6932;51.438;5.470;2022-11-02T16:15:11;101549.00;;;19.90
15079;BMP180;6932;51.438;5.470;2022-11-02T16:17:47;101543.00;;;19.90
15079;BMP180;6932;51.438;5.470;2022-11-02T16:20:32;101549.00;;;19.80
15079;BMP180;6932;51.438;5.470;2022-11-02T16:23:00;101550.00;;;19.80
15079;BMP180;6932;51.438;5.470;2022-11-02T16:25:41;101549.00;;;19.80
15079;BMP180;6932;51.438;5.470;2022-11-02T16:28:30;101542.00;;;19.80
15079;BMP180;6932;51.438;5.470;2022-11-02T16:33:49;101550.00;;;19.70
15079;BMP180;6932;51.438;5.470;2022-11-02T16:36:25;101554.00;;;19.60
15079;BMP180;6932;51.438;5.470;2022-11-02T16:39:06;101554.00;;;19.60
15079;BMP180;6932;51.438;5.470;2022-11-02T16:41:39;101552.00;;;19.60
15079;BMP180;6932;51.438;5.470;2022-11-02T16:44:19;101543.00;;;19.60
15079;BMP180;6932;51.438;5.470;2022-11-02T16:52:26;101533.00;;;19.40
15079;BMP180;6932;51.438;5.470;2022-11-02T16:54:53;101534.00;;;19.40
15079;BMP180;6932;51.438;5.470;2022-11-02T16:57:29;101529.00;;;19.40
15079;BMP180;6932;51.438;5.470;2022-11-02T17:02:37;101525.00;;;19.30
15079;BMP180;6932;51.438;5.470;2022-11-02T17:05:16;101538.00;;;19.30
15079;BMP180;6932;51.438;5.470;2022-11-02T17:08:07;101537.00;;;19.20
15079;BMP180;6932;51.438;5.470;2022-11-02T17:10:40;101529.00;;;19.10
15079;BMP180;6932;51.438;5.470;2022-11-02T17:13:15;101529.00;;;19.10
15079;BMP180;6932;51.438;5.470;2022-11-02T17:15:48;101535.00;;;19.10
15079;BMP180;6932;51.438;5.470;2022-11-02T17:18:26;101537.00;;;19.10
15079;BMP180;6932;51.438;5.470;2022-11-02T17:21:23;101530.00;;;19.10
15079;BMP180;6932;51.438;5.470;2022-11-02T17:23:51;101538.00;;;19.00
15079;BMP180;6932;51.438;5.470;2022-11-02T17:28:51;101528.00;;;19.00
15079;BMP180;6932;51.438;5.470;2022-11-02T17:31:27;101529.00;;;18.90
15079;BMP180;6932;51.438;5.470;2022-11-02T17:34:06;101534.00;;;18.90
15079;BMP180;6932;51.438;5.470;2022-11-02T17:36:41;101530.00;;;18.90
15079;BMP180;6932;51.438;5.470;2022-11-02T17:39:12;101533.00;;;18.90